LFMH/EBU METAR and TAF weather

Enter ICAO airport designator
Station Type Date Time Source
LFMH METAR 2019/04/25 18:00 UTC NOAA

LFMH 251800Z AUTO 15004KT 5000 RA BR FEW005/// SCT034/// BKN041/// ///CB 08/07 Q1011


Station Type Date Time Source
LFMH Decoded METAR 2019/04/25 18:00 UTC NOAA

St-Etienne Boutheon, France (LFMH) 45-32N 004-18E 402M
Apr 25, 2019 - 02:00 PM EDT / 2019.04.25 1800 UTC
Wind: from the SSE (150 degrees) at 5 MPH (4 KT):0
Visibility: 3 mile(s):0
Sky conditions: mostly cloudy
Weather: rain; mist; Cumulonimbus clouds observed
Temperature: 46 F (8 C)
Dew Point: 44 F (7 C)
Relative Humidity: 93%
Pressure (altimeter): 29.85 in. Hg (1011 hPa)
ob: LFMH 251800Z AUTO 15004KT 5000 RA BR FEW005/// SCT034/// BKN041/// ///CB 08/07 Q1011
cycle: 18

Station Type Date Time Source
LFMH TAF 2019/04/25 17:27 UTC NOAA

TAF LFMH 251725Z 2517/2615 CNL

Example: see airport list